Time;durP1;ratioP1;P1;durP2;ratioP2;P2;SDS_P1;SDS_P2;PMS_P1;PMS_P2;Temp;Humidity;BMP_temperature;BMP_pressure;BME280_temperature;BME280_humidity;BME280_pressure;Samples;Min_cycle;Max_cycle;Signal;HPM_P1;HPM_P2
2023/03/07 00:01:39;;;;;;;;;18.00;16.00;25.50;29.30;;;;;;109685;1259;50094;-66
2023/03/07 00:04:05;;;;;;;;;18.00;17.00;25.50;29.30;;;;;;109726;1259;49283;-66
2023/03/07 00:06:32;;;;;;;;;16.00;15.00;25.40;29.40;;;;;;109616;1255;45615;-66
2023/03/07 00:09:00;;;;;;;;;16.00;15.00;25.40;29.40;;;;;;109637;1255;55594;-66
2023/03/07 00:11:27;;;;;;;;;16.00;15.00;25.30;29.20;;;;;;109748;1259;53682;-67
2023/03/07 00:13:54;;;;;;;;;18.00;17.00;25.30;29.30;;;;;;109566;1257;49951;-66
2023/03/07 00:16:22;;;;;;;;;12.00;11.00;25.30;29.60;;;;;;109706;1255;50502;-66
2023/03/07 00:18:48;;;;;;;;;19.00;16.00;25.30;29.50;;;;;;109876;1257;45879;-66
2023/03/07 00:21:18;;;;;;;;;16.00;15.00;25.20;29.60;;;;;;109881;1255;55892;-65
2023/03/07 00:23:45;;;;;;;;;18.00;16.33;25.30;29.60;;;;;;109864;1255;54552;-68
2023/03/07 00:26:16;;;;;;;;;16.00;15.00;25.30;29.60;;;;;;109653;1255;49646;-66
2023/03/07 00:28:46;;;;;;;;;16.00;15.00;25.40;29.60;;;;;;109616;1255;49956;-68
2023/03/07 00:31:12;;;;;;;;;17.00;15.00;25.50;29.70;;;;;;109699;1255;45553;-65
2023/03/07 00:33:39;;;;;;;;;17.00;14.00;25.60;29.70;;;;;;109557;1257;56580;-67
2023/03/07 00:36:17;;;;;;;;;15.33;14.33;25.60;29.60;;;;;;109685;1259;54628;-67
2023/03/07 00:38:44;;;;;;;;;17.50;14.50;25.70;29.60;;;;;;109595;1255;49095;-65
2023/03/07 00:41:12;;;;;;;;;15.00;12.50;25.80;29.80;;;;;;109657;1255;49820;-65
2023/03/07 00:43:39;;;;;;;;;14.00;13.00;25.90;29.70;;;;;;109601;1255;46274;-65
2023/03/07 00:46:06;;;;;;;;;15.00;14.00;26.00;29.70;;;;;;109680;1259;56890;-67
2023/03/07 00:48:37;;;;;;;;;14.00;13.00;26.10;29.70;;;;;;109590;1255;54014;-67
2023/03/07 00:51:05;;;;;;;;;15.00;14.00;26.10;29.80;;;;;;109647;1255;50393;-67
2023/03/07 00:53:32;;;;;;;;;15.00;14.00;26.20;29.60;;;;;;109657;1259;48909;-66
2023/03/07 00:56:01;;;;;;;;;16.00;15.00;26.30;29.60;;;;;;109586;1259;45783;-66
2023/03/07 00:58:29;;;;;;;;;15.00;14.00;26.50;29.70;;;;;;109752;1255;55181;-64
2023/03/07 01:00:56;;;;;;;;;17.00;15.00;26.50;29.80;;;;;;109700;1260;54486;-65
2023/03/07 01:03:23;;;;;;;;;19.00;14.00;26.60;29.70;;;;;;109603;1259;49629;-63
2023/03/07 01:05:50;;;;;;;;;19.00;14.50;26.70;30.00;;;;;;109625;1259;49268;-63
2023/03/07 01:08:17;;;;;;;;;22.00;15.00;26.80;29.90;;;;;;109692;1260;45351;-63
2023/03/07 01:10:43;;;;;;;;;16.50;13.50;26.90;29.80;;;;;;109570;1260;56138;-63
2023/03/07 01:13:11;;;;;;;;;14.00;13.00;26.90;30.00;;;;;;109748;1255;53809;-64
2023/03/07 01:15:38;;;;;;;;;18.00;15.00;27.00;29.80;;;;;;109576;1260;49894;-64
2023/03/07 01:18:05;;;;;;;;;16.00;15.00;27.10;29.80;;;;;;109623;1255;50669;-63
2023/03/07 01:20:33;;;;;;;;;16.00;15.00;27.10;29.80;;;;;;109676;1260;45754;-63
2023/03/07 01:22:59;;;;;;;;;16.00;13.50;27.20;29.80;;;;;;109696;1259;55638;-63
2023/03/07 01:25:26;;;;;;;;;13.00;12.00;27.20;29.80;;;;;;109645;1255;54060;-63
2023/03/07 01:27:56;;;;;;;;;16.00;12.67;27.20;29.70;;;;;;109640;1260;49483;-63
2023/03/07 01:30:24;;;;;;;;;14.00;13.00;27.30;29.80;;;;;;109741;1255;49263;-64
2023/03/07 01:32:55;;;;;;;;;15.00;13.00;27.30;29.80;;;;;;109886;1260;45272;-62
2023/03/07 01:35:22;;;;;;;;;14.00;13.00;27.30;29.80;;;;;;109924;1255;56189;-64
2023/03/07 01:37:49;;;;;;;;;13.00;12.00;27.30;29.70;;;;;;109791;1258;53990;-64
2023/03/07 01:40:17;;;;;;;;;15.00;14.00;27.30;29.60;;;;;;109740;1255;50597;-63
2023/03/07 01:42:43;;;;;;;;;15.00;12.00;27.30;29.60;;;;;;109796;1255;50096;-63
2023/03/07 01:45:13;;;;;;;;;13.00;12.00;27.30;29.60;;;;;;109629;1255;46405;-62
2023/03/07 01:47:42;;;;;;;;;18.00;15.00;27.30;29.60;;;;;;109776;1256;55838;-63
2023/03/07 01:50:13;;;;;;;;;15.00;13.00;27.30;29.60;;;;;;109652;1260;53445;-65
2023/03/07 01:52:47;;;;;;;;;15.67;11.00;27.30;29.60;;;;;;109623;1260;49353;-64
2023/03/07 01:55:19;;;;;;;;;13.00;12.00;27.20;29.60;;;;;;109574;1257;49237;-64
2023/03/07 01:57:47;;;;;;;;;12.00;11.00;27.30;29.60;;;;;;109620;1259;45897;-64
2023/03/07 02:00:18;;;;;;;;;12.00;11.00;27.20;29.60;;;;;;109762;1255;56080;-63
2023/03/07 02:02:48;;;;;;;;;15.00;14.00;27.20;29.60;;;;;;109702;1255;53878;-63
2023/03/07 02:05:24;;;;;;;;;13.00;12.00;27.20;29.70;;;;;;109608;1255;49992;-63
2023/03/07 02:07:51;;;;;;;;;13.00;12.00;27.20;29.70;;;;;;109536;1257;49522;-63
2023/03/07 02:10:19;;;;;;;;;15.00;12.00;27.10;29.90;;;;;;109598;1255;46625;-64
2023/03/07 02:12:46;;;;;;;;;14.00;13.00;27.10;29.50;;;;;;109697;1255;55465;-65
2023/03/07 02:15:14;;;;;;;;;15.00;13.00;27.00;29.50;;;;;;109654;1255;54106;-64
2023/03/07 02:17:41;;;;;;;;;15.00;12.00;27.00;29.50;;;;;;109657;1255;49696;-64
2023/03/07 02:20:26;;;;;;;;;14.00;13.00;26.90;29.60;;;;;;109731;1260;49714;-63
2023/03/07 02:22:53;;;;;;;;;14.67;13.33;26.90;29.50;;;;;;109838;1259;46106;-63
2023/03/07 02:25:41;;;;;;;;;14.00;13.00;26.80;29.40;;;;;;109593;1260;56772;-63
2023/03/07 02:28:10;;;;;;;;;13.00;12.00;26.80;29.50;;;;;;109666;1260;54581;-63
2023/03/07 02:30:37;;;;;;;;;16.50;13.00;26.70;29.40;;;;;;109859;1259;49628;-62
2023/03/07 02:33:03;;;;;;;;;13.00;12.00;26.70;29.80;;;;;;109727;1255;49059;-63
2023/03/07 02:35:30;;;;;;;;;12.50;11.50;26.60;29.40;;;;;;109765;1255;45526;-63
2023/03/07 02:37:59;;;;;;;;;14.00;13.00;26.60;29.40;;;;;;109816;1257;55622;-63
2023/03/07 02:40:28;;;;;;;;;15.00;14.00;26.50;29.40;;;;;;109659;1259;53548;-65
2023/03/07 02:42:57;;;;;;;;;14.00;12.50;26.50;29.40;;;;;;109651;1255;49897;-65
2023/03/07 02:45:23;;;;;;;;;14.00;13.00;26.40;29.40;;;;;;109634;1255;49550;-64
2023/03/07 02:47:49;;;;;;;;;16.00;13.00;26.40;29.40;;;;;;109674;1259;46847;-63
2023/03/07 02:50:16;;;;;;;;;15.00;13.00;26.30;29.40;;;;;;109790;1255;56736;-64
2023/03/07 02:52:43;;;;;;;;;13.00;11.00;26.30;29.40;;;;;;109907;1255;54764;-62
2023/03/07 02:55:09;;;;;;;;;13.00;12.00;26.20;29.40;;;;;;109738;1255;49627;-64
2023/03/07 02:57:36;;;;;;;;;10.25;9.25;26.20;29.40;;;;;;109739;1260;48832;-63
2023/03/07 03:00:06;;;;;;;;;12.00;11.00;26.10;29.40;;;;;;109734;1256;46044;-62
2023/03/07 03:02:33;;;;;;;;;16.00;14.00;26.10;29.50;;;;;;109601;1259;55883;-63
2023/03/07 03:04:59;;;;;;;;;12.00;11.00;26.00;29.40;;;;;;109664;1255;54142;-62
2023/03/07 03:07:25;;;;;;;;;13.67;10.67;26.00;29.60;;;;;;109599;1256;49685;-62
2023/03/07 03:09:51;;;;;;;;;14.00;12.00;25.90;29.40;;;;;;109589;1260;50967;-63
2023/03/07 03:12:17;;;;;;;;;13.00;12.00;25.90;29.50;;;;;;109633;1259;45692;-63
2023/03/07 03:14:43;;;;;;;;;;;25.80;29.70;;;;;;109600;1256;56040;-62
2023/03/07 03:17:10;;;;;;;;;13.00;12.00;25.80;29.50;;;;;;109596;1260;54380;-64
2023/03/07 03:19:36;;;;;;;;;13.00;12.00;25.70;29.40;;;;;;109580;1255;49413;-64
2023/03/07 03:22:03;;;;;;;;;12.00;11.00;25.60;29.40;;;;;;109626;1255;50549;-63
2023/03/07 03:24:29;;;;;;;;;13.25;12.25;25.60;29.40;;;;;;109619;1259;45547;-64
2023/03/07 03:26:56;;;;;;;;;13.00;11.00;25.60;29.60;;;;;;109601;1255;56025;-64
2023/03/07 03:29:24;;;;;;;;;13.50;12.50;25.60;29.40;;;;;;109634;1255;53928;-64
2023/03/07 03:31:50;;;;;;;;;14.50;12.00;25.50;29.40;;;;;;109676;1255;49694;-64
2023/03/07 03:34:17;;;;;;;;;;;25.50;29.60;;;;;;109646;1259;50262;-63
2023/03/07 03:36:43;;;;;;;;;13.00;12.00;25.50;29.40;;;;;;109589;1255;46004;-64
2023/03/07 03:39:09;;;;;;;;;12.00;11.00;25.40;29.30;;;;;;109585;1259;56403;-63
2023/03/07 03:41:36;;;;;;;;;14.00;12.00;25.40;29.40;;;;;;109601;1255;53560;-64
2023/03/07 03:44:03;;;;;;;;;13.00;12.00;25.40;29.40;;;;;;109620;1255;49978;-65
2023/03/07 03:46:29;;;;;;;;;13.00;12.00;25.30;29.40;;;;;;109669;1260;49760;-63
2023/03/07 03:48:55;;;;;;;;;16.00;15.00;25.30;29.40;;;;;;109642;1260;45242;-68
2023/03/07 03:51:23;;;;;;;;;14.67;13.33;25.20;29.40;;;;;;109676;1255;55893;-65
2023/03/07 03:53:49;;;;;;;;;13.33;12.00;25.20;29.60;;;;;;109646;1259;54753;-63
2023/03/07 03:56:18;;;;;;;;;14.00;11.00;25.20;29.40;;;;;;109634;1257;49425;-63
2023/03/07 03:58:50;;;;;;;;;14.00;12.00;25.20;29.40;;;;;;109722;1255;49916;-63
2023/03/07 04:01:18;;;;;;;;;15.00;13.00;25.10;29.60;;;;;;109649;1255;45455;-63
2023/03/07 04:03:46;;;;;;;;;12.00;11.00;25.10;29.60;;;;;;109598;1255;55487;-62
2023/03/07 04:06:22;;;;;;;;;15.67;13.67;25.00;29.40;;;;;;109650;1260;54314;-62
2023/03/07 04:08:50;;;;;;;;;14.00;12.50;25.00;29.40;;;;;;109604;1256;49590;-63
2023/03/07 04:11:17;;;;;;;;;14.00;11.00;25.00;29.50;;;;;;109636;1256;48788;-62
2023/03/07 04:13:43;;;;;;;;;13.00;12.00;24.90;29.50;;;;;;109519;1257;46238;-63
2023/03/07 04:16:09;;;;;;;;;13.00;12.00;24.90;29.50;;;;;;109571;1258;55515;-63
2023/03/07 04:18:36;;;;;;;;;14.00;12.00;24.80;29.50;;;;;;109752;1257;54153;-62
2023/03/07 04:21:04;;;;;;;;;16.00;13.00;24.80;29.60;;;;;;109665;1255;49734;-63
2023/03/07 04:23:31;;;;;;;;;13.00;12.00;24.70;29.50;;;;;;109703;1255;49826;-63
2023/03/07 04:25:59;;;;;;;;;13.00;12.00;24.60;29.50;;;;;;109787;1259;46332;-63
2023/03/07 04:28:26;;;;;;;;;;;24.60;29.60;;;;;;109692;1255;55470;-63
2023/03/07 04:30:55;;;;;;;;;14.00;13.00;24.50;29.70;;;;;;109718;1259;54440;-64
2023/03/07 04:33:21;;;;;;;;;15.00;14.00;24.40;29.60;;;;;;110004;1255;49612;-63
2023/03/07 04:35:48;;;;;;;;;13.00;12.00;24.40;29.70;;;;;;109724;1255;49561;-64
2023/03/07 04:38:15;;;;;;;;;15.00;13.00;24.30;29.60;;;;;;109618;1261;46767;-64
2023/03/07 04:40:41;;;;;;;;;12.00;11.50;24.30;29.70;;;;;;109740;1255;55227;-63
2023/03/07 04:43:07;;;;;;;;;15.00;13.00;24.20;29.70;;;;;;109691;1255;53933;-63
2023/03/07 04:45:36;;;;;;;;;13.00;12.00;24.20;29.70;;;;;;109697;1260;49310;-62
2023/03/07 04:48:02;;;;;;;;;15.00;13.00;24.10;29.70;;;;;;109828;1255;49448;-63
2023/03/07 04:50:29;;;;;;;;;16.00;12.00;24.10;29.70;;;;;;109666;1255;46792;-62
2023/03/07 04:52:55;;;;;;;;;13.00;12.00;24.00;29.70;;;;;;109775;1260;55905;-63
2023/03/07 04:55:21;;;;;;;;;13.00;11.00;24.00;29.80;;;;;;109619;1259;53746;-63
2023/03/07 04:57:48;;;;;;;;;17.00;14.00;23.90;29.80;;;;;;109625;1255;49691;-62
2023/03/07 05:00:15;;;;;;;;;14.00;12.00;23.90;30.00;;;;;;109540;1259;49437;-62
2023/03/07 05:02:41;;;;;;;;;13.50;12.00;23.80;29.80;;;;;;109460;1255;45759;-61
2023/03/07 05:05:08;;;;;;;;;14.00;12.00;23.80;29.90;;;;;;109575;1256;55212;-61
2023/03/07 05:07:35;;;;;;;;;14.00;12.00;23.80;29.90;;;;;;109582;1259;53951;-61
2023/03/07 05:10:01;;;;;;;;;12.00;11.00;23.70;30.00;;;;;;109583;1257;49271;-60
2023/03/07 05:12:27;;;;;;;;;13.00;11.00;23.70;29.90;;;;;;109398;1259;49807;-63
2023/03/07 05:14:53;;;;;;;;;13.00;11.00;23.60;29.90;;;;;;109588;1256;46103;-63
2023/03/07 05:17:20;;;;;;;;;15.00;13.50;23.60;29.90;;;;;;109602;1255;56047;-62
2023/03/07 05:19:46;;;;;;;;;13.50;12.50;23.60;29.90;;;;;;109642;1255;53646;-62
2023/03/07 05:22:12;;;;;;;;;17.00;11.00;23.60;30.00;;;;;;109578;1260;49263;-62
2023/03/07 05:24:39;;;;;;;;;15.50;12.00;23.50;29.90;;;;;;111903;1259;50670;-64
2023/03/07 05:27:05;;;;;;;;;13.50;12.50;23.60;30.00;;;;;;110124;1260;45454;-63
2023/03/07 05:29:31;;;;;;;;;15.00;13.00;23.70;29.90;;;;;;109634;1260;56062;-63
2023/03/07 05:31:57;;;;;;;;;12.50;11.50;23.70;29.80;;;;;;109661;1257;53739;-64
2023/03/07 05:34:24;;;;;;;;;15.00;13.33;23.70;29.80;;;;;;109834;1261;50131;-63
2023/03/07 05:36:50;;;;;;;;;15.50;13.00;23.60;29.70;;;;;;109577;1260;49622;-63
2023/03/07 05:39:16;;;;;;;;;15.00;13.00;23.60;29.90;;;;;;109601;1259;45875;-62
2023/03/07 05:41:42;;;;;;;;;14.00;11.00;23.50;29.90;;;;;;109746;1257;55950;-63
2023/03/07 05:44:08;;;;;;;;;13.50;12.50;23.50;30.00;;;;;;109668;1260;54459;-64
2023/03/07 05:46:35;;;;;;;;;17.50;13.50;23.40;29.90;;;;;;109571;1255;49053;-63
2023/03/07 05:49:01;;;;;;;;;14.00;12.00;23.40;30.00;;;;;;109587;1255;50529;-62
2023/03/07 05:51:27;;;;;;;;;14.00;12.00;23.30;30.00;;;;;;109687;1260;45366;-63
2023/03/07 05:53:53;;;;;;;;;15.50;13.50;23.30;30.00;;;;;;109677;1257;55911;-64
2023/03/07 05:56:20;;;;;;;;;14.00;12.50;23.20;30.10;;;;;;109668;1260;54168;-63
2023/03/07 05:58:46;;;;;;;;;15.00;14.00;23.20;30.00;;;;;;109625;1260;49873;-63
2023/03/07 06:01:12;;;;;;;;;20.00;18.00;23.20;30.00;;;;;;109663;1255;49833;-64
2023/03/07 06:03:38;;;;;;;;;24.00;22.00;23.10;30.80;;;;;;109639;1257;45249;-62
2023/03/07 06:06:05;;;;;;;;;21.00;19.67;23.10;32.30;;;;;;109543;1261;56047;-62
2023/03/07 06:08:31;;;;;;;;;20.00;18.00;23.10;32.00;;;;;;109702;1261;54209;-63
2023/03/07 06:10:57;;;;;;;;;24.00;20.00;23.00;31.20;;;;;;109703;1255;49445;-63
2023/03/07 06:13:24;;;;;;;;;17.00;16.00;23.00;31.50;;;;;;109660;1255;49007;-65
2023/03/07 06:15:54;;;;;;;;;18.25;16.25;23.00;31.10;;;;;;109678;1257;45440;-63
2023/03/07 06:18:22;;;;;;;;;18.00;17.00;23.00;31.40;;;;;;109645;1258;55960;-64
2023/03/07 06:21:00;;;;;;;;;19.00;15.00;23.00;31.40;;;;;;109718;1260;54417;-63
2023/03/07 06:23:28;;;;;;;;;19.00;17.50;23.00;31.30;;;;;;109673;1259;50667;-63
2023/03/07 06:25:55;;;;;;;;;23.00;18.00;22.90;31.20;;;;;;109712;1255;49829;-63
2023/03/07 06:28:22;;;;;;;;;19.33;17.00;22.90;31.40;;;;;;109650;1256;46138;-63
2023/03/07 06:30:48;;;;;;;;;21.00;17.00;22.90;31.20;;;;;;109666;1259;55316;-62
2023/03/07 06:33:15;;;;;;;;;18.00;17.00;22.80;31.10;;;;;;109690;1255;54149;-63
2023/03/07 06:35:42;;;;;;;;;17.50;16.50;22.80;31.10;;;;;;109572;1259;49932;-62
2023/03/07 06:38:10;;;;;;;;;20.50;18.00;22.80;31.10;;;;;;109697;1255;49034;-62
2023/03/07 06:40:36;;;;;;;;;17.00;16.00;22.80;31.10;;;;;;109601;1257;45612;-62
2023/03/07 06:43:03;;;;;;;;;22.00;18.00;22.70;31.00;;;;;;109703;1255;56362;-63
2023/03/07 06:45:29;;;;;;;;;19.00;16.00;22.70;31.00;;;;;;109565;1256;53960;-63
2023/03/07 06:47:56;;;;;;;;;17.00;16.00;22.70;31.20;;;;;;109578;1259;49009;-63
2023/03/07 06:50:22;;;;;;;;;24.00;19.00;22.70;31.00;;;;;;109600;1260;49863;-63
2023/03/07 06:52:50;;;;;;;;;20.00;16.50;22.60;30.90;;;;;;109668;1257;45468;-63
2023/03/07 06:55:18;;;;;;;;;17.50;16.00;22.60;31.20;;;;;;109582;1255;56200;-63
2023/03/07 06:57:44;;;;;;;;;19.00;16.00;22.60;30.90;;;;;;109650;1260;54209;-64
2023/03/07 07:00:12;;;;;;;;;17.50;16.00;22.60;30.90;;;;;;109786;1258;49362;-62
2023/03/07 07:02:38;;;;;;;;;18.00;17.00;22.60;30.90;;;;;;109854;1257;50156;-62
2023/03/07 07:05:05;;;;;;;;;19.00;17.00;22.60;31.00;;;;;;109823;1255;46421;-62
2023/03/07 07:07:31;;;;;;;;;19.00;17.00;22.50;30.90;;;;;;109691;1259;170093;-62
2023/03/07 07:09:58;;;;;;;;;19.00;18.00;22.50;31.10;;;;;;109771;1257;53877;-62
2023/03/07 07:12:24;;;;;;;;;18.00;13.50;22.50;30.90;;;;;;109857;1255;49101;-63
2023/03/07 07:14:50;;;;;;;;;17.00;15.00;22.50;31.00;;;;;;109659;1261;49531;-63
2023/03/07 07:17:17;;;;;;;;;19.00;17.00;22.50;31.50;;;;;;109690;1257;46108;-63
2023/03/07 07:19:43;;;;;;;;;18.50;16.00;22.40;30.90;;;;;;109586;1258;55559;-63
2023/03/07 07:22:10;;;;;;;;;18.00;16.50;22.40;30.90;;;;;;109672;1259;54202;-63
2023/03/07 07:24:38;;;;;;;;;17.50;16.00;22.40;30.90;;;;;;109588;1257;50202;-63
2023/03/07 07:27:04;;;;;;;;;15.50;14.00;22.40;30.90;;;;;;109579;1259;49625;-63
2023/03/07 07:29:31;;;;;;;;;18.00;16.00;22.40;30.40;;;;;;109657;1260;45510;-62
2023/03/07 07:31:57;;;;;;;;;18.00;16.00;22.30;30.80;;;;;;109732;1255;56542;-63
2023/03/07 07:34:23;;;;;;;;;17.00;15.67;22.30;30.90;;;;;;109557;1260;53538;-63
2023/03/07 07:36:51;;;;;;;;;20.00;18.00;22.30;30.90;;;;;;109580;1255;50082;-64
2023/03/07 07:39:18;;;;;;;;;22.00;18.00;22.30;30.90;;;;;;109577;1260;49032;-63
2023/03/07 07:41:46;;;;;;;;;16.50;14.50;22.30;31.00;;;;;;109654;1255;46188;-64
2023/03/07 07:44:12;;;;;;;;;22.00;17.00;22.30;30.90;;;;;;109791;1256;55073;-62
2023/03/07 07:46:39;;;;;;;;;19.00;16.00;22.20;30.90;;;;;;109607;1257;54972;-63
2023/03/07 07:49:05;;;;;;;;;16.00;15.00;22.20;30.90;;;;;;109565;1259;49187;-63
2023/03/07 07:51:32;;;;;;;;;19.50;18.00;22.20;30.90;;;;;;109614;1255;49786;-63
2023/03/07 07:53:59;;;;;;;;;16.00;15.00;22.20;30.90;;;;;;109595;1260;45560;-63
2023/03/07 07:56:25;;;;;;;;;15.67;14.33;22.30;31.20;;;;;;109595;1255;55444;-62
2023/03/07 07:58:51;;;;;;;;;17.00;15.00;22.30;31.10;;;;;;109606;1260;54614;-64
2023/03/07 08:01:20;;;;;;;;;17.00;15.00;22.40;30.90;;;;;;109581;1258;49500;-63
2023/03/07 08:03:47;;;;;;;;;20.00;18.00;22.50;31.00;;;;;;109611;1255;49927;-65
2023/03/07 08:06:18;;;;;;;;;16.00;14.50;22.60;31.00;;;;;;109794;1255;46785;-63
2023/03/07 08:08:44;;;;;;;;;18.00;16.00;22.70;30.90;;;;;;109782;1258;56629;-64
2023/03/07 08:11:10;;;;;;;;;17.00;15.50;22.80;31.20;;;;;;109884;1259;53440;-62
2023/03/07 08:13:37;;;;;;;;;;;23.00;32.40;;;;;;109746;1259;51463;-60
2023/03/07 08:16:18;;;;;;;;;17.00;15.00;23.00;33.30;;;;;;109958;1259;48461;-62
2023/03/07 08:18:52;;;;;;;;;18.00;16.50;23.10;33.80;;;;;;109551;1258;45897;-61
2023/03/07 08:21:18;;;;;;;;;20.50;16.50;23.20;34.10;;;;;;109455;1255;56154;-62
2023/03/07 08:23:45;;;;;;;;;16.00;15.00;23.30;34.90;;;;;;109629;1255;53686;-61
2023/03/07 08:26:12;;;;;;;;;17.00;15.00;23.40;35.00;;;;;;109596;1255;50200;-60
2023/03/07 08:28:39;;;;;;;;;23.00;18.50;23.50;35.00;;;;;;109697;1261;49569;-61
2023/03/07 08:31:07;;;;;;;;;17.00;15.50;23.60;35.60;;;;;;109501;1259;47391;-61
2023/03/07 08:33:33;;;;;;;;;18.50;16.50;23.70;35.80;;;;;;109589;1259;55619;-61
2023/03/07 08:35:59;;;;;;;;;20.00;16.00;23.90;35.90;;;;;;109604;1255;54600;-62
2023/03/07 08:38:25;;;;;;;;;18.67;15.67;24.00;35.70;;;;;;109571;1255;50320;-61
2023/03/07 08:40:52;;;;;;;;;20.00;14.00;24.10;35.60;;;;;;109538;1260;49045;-61
2023/03/07 08:43:18;;;;;;;;;18.50;15.50;24.20;35.60;;;;;;109529;1259;46473;-61
2023/03/07 08:45:44;;;;;;;;;19.00;17.00;24.30;35.40;;;;;;109677;1255;56079;-60
2023/03/07 08:48:10;;;;;;;;;16.00;15.00;24.40;35.30;;;;;;109617;1255;53936;-61
2023/03/07 08:50:38;;;;;;;;;20.50;15.00;24.50;35.10;;;;;;109792;1255;49873;-61
2023/03/07 08:53:04;;;;;;;;;19.00;15.00;24.60;35.00;;;;;;109871;1260;49456;-61
2023/03/07 08:55:34;;;;;;;;;16.00;13.50;24.60;34.70;;;;;;109547;1255;45738;-67
2023/03/07 08:58:00;;;;;;;;;;;24.70;34.50;;;;;;109601;1255;55185;-60
2023/03/07 09:00:26;;;;;;;;;17.50;13.50;24.80;34.70;;;;;;109582;1255;54160;-60
2023/03/07 09:02:53;;;;;;;;;18.33;15.33;24.80;34.40;;;;;;109676;1259;49077;-60
2023/03/07 09:05:19;;;;;;;;;20.50;16.50;24.90;34.30;;;;;;109739;1255;49026;-61
2023/03/07 09:07:45;;;;;;;;;16.00;14.50;24.90;34.10;;;;;;109583;1260;45955;-60
2023/03/07 09:10:12;;;;;;;;;17.00;14.00;25.00;33.50;;;;;;109596;1260;55189;-61
2023/03/07 09:12:38;;;;;;;;;18.50;14.50;25.00;33.80;;;;;;109566;1255;54316;-60
2023/03/07 09:15:08;;;;;;;;;16.00;14.00;25.10;33.80;;;;;;109624;1256;49901;-60
2023/03/07 09:17:34;;;;;;;;;15.50;14.50;25.10;33.10;;;;;;109632;1255;49485;-61
2023/03/07 09:20:00;;;;;;;;;18.00;15.50;25.10;33.70;;;;;;109585;1255;45950;-61
2023/03/07 09:22:27;;;;;;;;;20.50;14.50;25.10;33.40;;;;;;109433;1255;55620;-59
2023/03/07 09:24:53;;;;;;;;;17.00;14.50;25.10;33.30;;;;;;109621;1259;54306;-60
2023/03/07 09:27:19;;;;;;;;;17.00;13.00;25.20;33.20;;;;;;109616;1260;49242;-60
2023/03/07 09:29:46;;;;;;;;;21.50;11.50;25.20;33.40;;;;;;109596;1255;49616;-60
2023/03/07 09:32:12;;;;;;;;;17.33;15.33;25.10;33.00;;;;;;109499;1260;47074;-60
2023/03/07 09:34:38;;;;;;;;;16.00;15.00;25.20;33.10;;;;;;109688;1260;55386;-60
2023/03/07 09:37:05;;;;;;;;;17.33;13.67;25.20;32.90;;;;;;109794;1260;54851;-60
2023/03/07 09:39:32;;;;;;;;;15.33;13.67;25.20;32.80;;;;;;109733;1255;49390;-60
2023/03/07 09:42:33;;;;;;;;;16.00;12.00;25.20;32.80;;;;;;109467;1260;49018;-60
2023/03/07 09:45:17;;;;;;;;;18.00;16.00;25.20;32.70;;;;;;109617;1261;46062;-60
2023/03/07 09:48:16;;;;;;;;;17.00;13.00;25.20;32.50;;;;;;109608;1259;55292;-62
2023/03/07 09:50:57;;;;;;;;;16.00;15.00;25.20;32.40;;;;;;109560;1257;54586;-60
2023/03/07 09:53:37;;;;;;;;;15.00;12.00;25.20;32.30;;;;;;109503;1260;49385;-60
2023/03/07 09:56:08;;;;;;;;;19.00;15.00;25.20;32.20;;;;;;109648;1255;50131;-60
2023/03/07 09:58:37;;;;;;;;;14.00;13.00;25.20;32.10;;;;;;109646;1259;45883;-60
2023/03/07 10:01:07;;;;;;;;;13.00;12.00;25.20;32.10;;;;;;109576;1260;55539;-60
2023/03/07 10:03:52;;;;;;;;;22.50;16.00;25.20;32.20;;;;;;109564;1255;54539;-59
2023/03/07 10:06:27;;;;;;;;;14.00;13.00;25.20;32.10;;;;;;109605;1255;50587;-60
2023/03/07 10:08:54;;;;;;;;;15.00;12.00;25.20;32.00;;;;;;109780;1255;49803;-60
2023/03/07 10:11:26;;;;;;;;;13.00;12.00;25.30;32.20;;;;;;109336;1261;46237;-61
2023/03/07 10:14:07;;;;;;;;;15.00;15.00;25.30;32.10;;;;;;109659;1255;55753;-60
2023/03/07 10:16:37;;;;;;;;;16.50;14.50;25.20;31.80;;;;;;109584;1259;54540;-59
2023/03/07 10:19:15;;;;;;;;;14.00;13.00;25.20;31.80;;;;;;109581;1256;50617;-61
2023/03/07 10:22:08;;;;;;;;;16.00;14.50;25.20;31.70;;;;;;109407;1259;49630;-61
2023/03/07 10:25:07;;;;;;;;;14.00;13.00;25.20;31.80;;;;;;109584;1259;46310;-63
2023/03/07 10:27:33;;;;;;;;;16.00;13.00;25.20;31.70;;;;;;109590;1256;55684;-65
2023/03/07 10:30:01;;;;;;;;;16.00;14.00;25.20;31.70;;;;;;109648;1255;53710;-66
2023/03/07 10:32:37;;;;;;;;;16.50;13.00;25.20;31.70;;;;;;109565;1255;49474;-65
2023/03/07 10:35:16;;;;;;;;;18.00;13.00;25.20;31.80;;;;;;109739;1259;49564;-65
2023/03/07 10:37:49;;;;;;;;;13.00;11.00;25.20;31.50;;;;;;109711;1260;46457;-67
2023/03/07 10:40:55;;;;;;;;;15.00;12.00;25.20;31.50;;;;;;109767;1258;55756;-67
2023/03/07 10:43:24;;;;;;;;;19.00;13.00;25.20;31.50;;;;;;109450;1259;53738;-67
2023/03/07 10:46:29;;;;;;;;;14.00;11.00;25.20;31.50;;;;;;109630;1255;49746;-67
2023/03/07 10:49:08;;;;;;;;;12.00;9.00;25.20;31.40;;;;;;109588;1261;49795;-67
2023/03/07 10:51:44;;;;;;;;;16.50;13.00;25.20;31.40;;;;;;109416;1260;46198;-67
2023/03/07 10:54:16;;;;;;;;;16.33;12.67;25.20;31.40;;;;;;109757;1260;56194;-68
2023/03/07 10:57:17;;;;;;;;;16.00;13.00;25.10;31.30;;;;;;109591;1255;53936;-67
2023/03/07 10:59:49;;;;;;;;;16.00;12.00;25.10;31.30;;;;;;109645;1257;48993;-66
2023/03/07 11:02:35;;;;;;;;;16.00;11.00;25.00;31.30;;;;;;109542;1255;50604;-68
2023/03/07 11:05:17;;;;;;;;;16.00;14.00;25.00;31.30;;;;;;109604;1259;45706;-69
2023/03/07 11:07:43;;;;;;;;;15.00;13.00;25.00;31.30;;;;;;109947;1260;56689;-69
2023/03/07 11:10:24;;;;;;;;;16.00;14.00;25.00;31.30;;;;;;109650;1257;54450;-68
2023/03/07 11:12:51;;;;;;;;;14.00;13.00;24.90;31.30;;;;;;109522;1255;50201;-68
2023/03/07 11:15:22;;;;;;;;;17.00;15.00;24.90;31.30;;;;;;109515;1257;50298;-66
2023/03/07 11:17:49;;;;;;;;;15.00;12.50;24.90;31.30;;;;;;109797;1255;47753;-66
2023/03/07 11:20:23;;;;;;;;;11.00;10.00;24.90;31.30;;;;;;109658;1255;55496;-66
2023/03/07 11:23:26;;;;;;;;;12.50;11.00;24.90;31.50;;;;;;109486;1255;53684;-67
2023/03/07 11:25:54;;;;;;;;;13.00;10.00;24.80;31.30;;;;;;109634;1255;49610;-67
2023/03/07 11:28:29;;;;;;;;;14.00;13.00;24.80;31.20;;;;;;109563;1259;49199;-67
2023/03/07 11:31:18;;;;;;;;;11.50;10.50;24.90;31.30;;;;;;109661;1255;45644;-67
2023/03/07 11:34:15;;;;;;;;;14.00;12.00;24.80;31.20;;;;;;109544;1255;55813;-67
2023/03/07 11:36:47;;;;;;;;;13.00;12.00;24.80;31.20;;;;;;109555;1259;53891;-66
2023/03/07 11:39:39;;;;;;;;;15.00;11.50;24.80;31.20;;;;;;109615;1257;49246;-67
2023/03/07 11:42:15;;;;;;;;;15.00;13.00;24.70;31.20;;;;;;109183;1261;49219;-67
2023/03/07 11:44:52;;;;;;;;;13.00;12.00;24.70;31.20;;;;;;109404;1260;45784;-68
2023/03/07 11:47:56;;;;;;;;;12.00;11.00;24.70;31.20;;;;;;109580;1255;55445;-67
2023/03/07 11:50:28;;;;;;;;;13.33;12.00;24.60;31.10;;;;;;109384;1259;54445;-67
2023/03/07 11:53:00;;;;;;;;;11.00;10.00;24.60;31.10;;;;;;109610;1260;50100;-66
2023/03/07 11:55:26;;;;;;;;;13.00;12.00;24.60;31.50;;;;;;109649;1260;49804;-67
2023/03/07 11:58:15;;;;;;;;;15.67;12.00;24.50;31.30;;;;;;109652;1256;45025;-68
2023/03/07 12:01:11;;;;;;;;;18.00;14.00;24.50;31.00;;;;;;109734;1257;56484;-68
2023/03/07 12:03:53;;;;;;;;;16.50;12.00;24.40;31.40;;;;;;109613;1256;54273;-68
2023/03/07 12:06:34;;;;;;;;;13.00;12.00;24.40;31.70;;;;;;109711;1260;50342;-66
2023/03/07 12:09:00;;;;;;;;;13.00;12.00;24.40;31.50;;;;;;109707;1260;49694;-67
2023/03/07 12:12:04;;;;;;;;;14.00;11.00;24.40;31.60;;;;;;109567;1259;45294;-68
2023/03/07 12:14:49;;;;;;;;;13.50;11.50;24.40;31.60;;;;;;109803;1259;56741;-68
2023/03/07 12:17:25;;;;;;;;;12.00;10.00;24.40;31.60;;;;;;109759;1259;55030;-68
2023/03/07 12:20:09;;;;;;;;;16.50;10.50;24.50;31.70;;;;;;109596;1260;50614;-67
2023/03/07 12:22:51;;;;;;;;;12.00;11.00;24.50;31.80;;;;;;109462;1260;49930;-67
2023/03/07 12:25:24;;;;;;;;;15.00;10.00;24.50;32.00;;;;;;109539;1255;45965;-67
2023/03/07 12:28:22;;;;;;;;;14.00;11.00;24.60;31.80;;;;;;109588;1255;55700;-66
2023/03/07 12:30:56;;;;;;;;;11.00;10.00;24.60;31.80;;;;;;109038;1261;54341;-68
2023/03/07 12:33:26;;;;;;;;;13.00;10.00;24.70;32.00;;;;;;109568;1259;50360;-68